sensor_id;sensor_type;location;lat;lon;timestamp;P1;durP1;ratioP1;P2;durP2;ratioP2
12950;SDS011;6540;50.858;7.232;2022-07-06T00:00:35;2.73;;;2.07;;
12950;SDS011;6540;50.858;7.232;2022-07-06T00:03:01;2.00;;;1.80;;
12950;SDS011;6540;50.858;7.232;2022-07-06T00:05:26;7.13;;;1.97;;
12950;SDS011;6540;50.858;7.232;2022-07-06T00:07:52;4.20;;;2.13;;
12950;SDS011;6540;50.858;7.232;2022-07-06T00:10:17;2.37;;;2.00;;
12950;SDS011;6540;50.858;7.232;2022-07-06T00:12:42;4.40;;;1.87;;
12950;SDS011;6540;50.858;7.232;2022-07-06T00:15:08;3.97;;;1.90;;
12950;SDS011;6540;50.858;7.232;2022-07-06T00:17:34;2.80;;;2.07;;
12950;SDS011;6540;50.858;7.232;2022-07-06T00:19:59;2.03;;;1.80;;
12950;SDS011;6540;50.858;7.232;2022-07-06T00:22:25;3.80;;;1.90;;
12950;SDS011;6540;50.858;7.232;2022-07-06T00:24:50;3.53;;;1.93;;
12950;SDS011;6540;50.858;7.232;2022-07-06T00:27:16;2.30;;;1.93;;
12950;SDS011;6540;50.858;7.232;2022-07-06T00:29:42;3.30;;;2.03;;
12950;SDS011;6540;50.858;7.232;2022-07-06T00:32:09;2.80;;;1.80;;
12950;SDS011;6540;50.858;7.232;2022-07-06T00:34:36;2.33;;;1.80;;
12950;SDS011;6540;50.858;7.232;2022-07-06T00:37:04;2.77;;;2.00;;
12950;SDS011;6540;50.858;7.232;2022-07-06T00:39:30;2.23;;;1.77;;
12950;SDS011;6540;50.858;7.232;2022-07-06T00:41:56;3.63;;;2.00;;
12950;SDS011;6540;50.858;7.232;2022-07-06T00:44:21;2.47;;;1.83;;
12950;SDS011;6540;50.858;7.232;2022-07-06T00:46:47;5.13;;;2.40;;
12950;SDS011;6540;50.858;7.232;2022-07-06T00:49:12;4.47;;;1.90;;
12950;SDS011;6540;50.858;7.232;2022-07-06T00:51:57;2.80;;;1.80;;
12950;SDS011;6540;50.858;7.232;2022-07-06T00:54:24;2.17;;;1.97;;
12950;SDS011;6540;50.858;7.232;2022-07-06T00:56:50;4.77;;;1.57;;
12950;SDS011;6540;50.858;7.232;2022-07-06T00:59:16;3.27;;;1.83;;
12950;SDS011;6540;50.858;7.232;2022-07-06T01:01:41;2.77;;;1.80;;
12950;SDS011;6540;50.858;7.232;2022-07-06T01:04:07;4.50;;;1.80;;
12950;SDS011;6540;50.858;7.232;2022-07-06T01:06:32;4.80;;;2.30;;
12950;SDS011;6540;50.858;7.232;2022-07-06T01:08:59;2.00;;;1.83;;
12950;SDS011;6540;50.858;7.232;2022-07-06T01:11:24;2.00;;;1.90;;
12950;SDS011;6540;50.858;7.232;2022-07-06T01:13:50;2.07;;;1.87;;
12950;SDS011;6540;50.858;7.232;2022-07-06T01:16:16;1.70;;;1.60;;
12950;SDS011;6540;50.858;7.232;2022-07-06T01:18:42;2.57;;;1.70;;
12950;SDS011;6540;50.858;7.232;2022-07-06T01:21:12;2.33;;;1.80;;
12950;SDS011;6540;50.858;7.232;2022-07-06T01:23:42;2.13;;;1.93;;
12950;SDS011;6540;50.858;7.232;2022-07-06T01:26:09;2.80;;;2.10;;
12950;SDS011;6540;50.858;7.232;2022-07-06T01:28:36;4.83;;;1.93;;
12950;SDS011;6540;50.858;7.232;2022-07-06T01:31:01;5.50;;;2.17;;
12950;SDS011;6540;50.858;7.232;2022-07-06T01:33:26;2.37;;;2.20;;
12950;SDS011;6540;50.858;7.232;2022-07-06T01:35:52;2.30;;;2.10;;
12950;SDS011;6540;50.858;7.232;2022-07-06T01:38:17;3.23;;;2.23;;
12950;SDS011;6540;50.858;7.232;2022-07-06T01:40:43;3.37;;;1.70;;
12950;SDS011;6540;50.858;7.232;2022-07-06T01:43:08;2.67;;;2.10;;
12950;SDS011;6540;50.858;7.232;2022-07-06T01:45:33;3.10;;;1.90;;
12950;SDS011;6540;50.858;7.232;2022-07-06T01:47:59;4.03;;;2.40;;
12950;SDS011;6540;50.858;7.232;2022-07-06T01:50:24;3.13;;;2.20;;
12950;SDS011;6540;50.858;7.232;2022-07-06T01:52:49;2.57;;;2.17;;
12950;SDS011;6540;50.858;7.232;2022-07-06T01:55:15;2.57;;;2.23;;
12950;SDS011;6540;50.858;7.232;2022-07-06T01:57:40;4.20;;;2.07;;
12950;SDS011;6540;50.858;7.232;2022-07-06T02:00:06;2.60;;;1.90;;
12950;SDS011;6540;50.858;7.232;2022-07-06T02:02:33;2.57;;;2.33;;
12950;SDS011;6540;50.858;7.232;2022-07-06T02:04:58;2.20;;;2.00;;
12950;SDS011;6540;50.858;7.232;2022-07-06T02:07:23;5.10;;;1.90;;
12950;SDS011;6540;50.858;7.232;2022-07-06T02:09:49;2.20;;;2.07;;
12950;SDS011;6540;50.858;7.232;2022-07-06T02:29:03;3.30;;;2.13;;
12950;SDS011;6540;50.858;7.232;2022-07-06T02:31:28;3.27;;;2.17;;
12950;SDS011;6540;50.858;7.232;2022-07-06T02:33:54;7.40;;;2.83;;
12950;SDS011;6540;50.858;7.232;2022-07-06T02:36:19;2.20;;;2.00;;
12950;SDS011;6540;50.858;7.232;2022-07-06T02:38:44;3.07;;;2.20;;
12950;SDS011;6540;50.858;7.232;2022-07-06T02:41:10;4.57;;;2.43;;
12950;SDS011;6540;50.858;7.232;2022-07-06T02:43:36;3.00;;;2.67;;
12950;SDS011;6540;50.858;7.232;2022-07-06T02:46:03;3.73;;;2.50;;
12950;SDS011;6540;50.858;7.232;2022-07-06T02:48:28;3.70;;;2.57;;
12950;SDS011;6540;50.858;7.232;2022-07-06T02:50:54;3.53;;;2.40;;
12950;SDS011;6540;50.858;7.232;2022-07-06T02:53:20;3.80;;;2.30;;
12950;SDS011;6540;50.858;7.232;2022-07-06T02:55:45;2.40;;;2.20;;
12950;SDS011;6540;50.858;7.232;2022-07-06T02:58:10;3.33;;;2.47;;
12950;SDS011;6540;50.858;7.232;2022-07-06T03:00:36;3.40;;;2.17;;
12950;SDS011;6540;50.858;7.232;2022-07-06T03:03:01;2.77;;;2.20;;
12950;SDS011;6540;50.858;7.232;2022-07-06T03:05:28;3.07;;;2.33;;
12950;SDS011;6540;50.858;7.232;2022-07-06T03:07:53;3.70;;;2.57;;
12950;SDS011;6540;50.858;7.232;2022-07-06T03:10:18;5.27;;;2.43;;
12950;SDS011;6540;50.858;7.232;2022-07-06T03:12:44;2.27;;;2.07;;
12950;SDS011;6540;50.858;7.232;2022-07-06T03:15:09;4.07;;;2.17;;
12950;SDS011;6540;50.858;7.232;2022-07-06T03:17:35;4.37;;;2.43;;
12950;SDS011;6540;50.858;7.232;2022-07-06T03:20:02;4.03;;;2.20;;
12950;SDS011;6540;50.858;7.232;2022-07-06T03:22:29;2.57;;;2.20;;
12950;SDS011;6540;50.858;7.232;2022-07-06T03:24:54;6.73;;;2.60;;
12950;SDS011;6540;50.858;7.232;2022-07-06T03:27:20;2.80;;;2.60;;
12950;SDS011;6540;50.858;7.232;2022-07-06T03:29:45;2.67;;;2.30;;
12950;SDS011;6540;50.858;7.232;2022-07-06T03:32:10;3.60;;;2.30;;
12950;SDS011;6540;50.858;7.232;2022-07-06T03:34:36;3.20;;;2.30;;
12950;SDS011;6540;50.858;7.232;2022-07-06T03:37:01;4.57;;;2.83;;
12950;SDS011;6540;50.858;7.232;2022-07-06T03:39:26;2.20;;;2.03;;
12950;SDS011;6540;50.858;7.232;2022-07-06T03:41:52;5.67;;;2.73;;
12950;SDS011;6540;50.858;7.232;2022-07-06T03:44:17;2.67;;;2.37;;
12950;SDS011;6540;50.858;7.232;2022-07-06T03:46:43;3.27;;;2.53;;
12950;SDS011;6540;50.858;7.232;2022-07-06T03:49:08;4.33;;;2.50;;
12950;SDS011;6540;50.858;7.232;2022-07-06T03:51:33;2.47;;;2.27;;
12950;SDS011;6540;50.858;7.232;2022-07-06T03:53:59;4.67;;;2.57;;
12950;SDS011;6540;50.858;7.232;2022-07-06T03:56:24;2.67;;;2.40;;
12950;SDS011;6540;50.858;7.232;2022-07-06T03:58:52;2.83;;;2.57;;
12950;SDS011;6540;50.858;7.232;2022-07-06T04:01:18;2.33;;;2.13;;
12950;SDS011;6540;50.858;7.232;2022-07-06T04:03:43;3.47;;;2.60;;
12950;SDS011;6540;50.858;7.232;2022-07-06T04:06:09;3.20;;;2.60;;
12950;SDS011;6540;50.858;7.232;2022-07-06T04:08:35;2.70;;;2.50;;
12950;SDS011;6540;50.858;7.232;2022-07-06T04:11:00;2.50;;;2.17;;
12950;SDS011;6540;50.858;7.232;2022-07-06T04:13:26;3.27;;;2.90;;
12950;SDS011;6540;50.858;7.232;2022-07-06T04:15:51;8.73;;;3.23;;
12950;SDS011;6540;50.858;7.232;2022-07-06T04:18:17;2.60;;;2.40;;
12950;SDS011;6540;50.858;7.232;2022-07-06T04:20:42;3.50;;;2.73;;
12950;SDS011;6540;50.858;7.232;2022-07-06T04:23:07;2.90;;;2.60;;
12950;SDS011;6540;50.858;7.232;2022-07-06T04:25:33;4.33;;;3.00;;
12950;SDS011;6540;50.858;7.232;2022-07-06T04:27:59;3.17;;;2.50;;
12950;SDS011;6540;50.858;7.232;2022-07-06T04:30:24;3.43;;;2.73;;
12950;SDS011;6540;50.858;7.232;2022-07-06T04:32:50;2.70;;;2.50;;
12950;SDS011;6540;50.858;7.232;2022-07-06T04:35:15;5.77;;;2.80;;
12950;SDS011;6540;50.858;7.232;2022-07-06T04:37:41;4.13;;;2.83;;
12950;SDS011;6540;50.858;7.232;2022-07-06T04:40:06;5.63;;;2.70;;
12950;SDS011;6540;50.858;7.232;2022-07-06T04:42:32;4.67;;;2.70;;
12950;SDS011;6540;50.858;7.232;2022-07-06T04:44:58;4.50;;;2.90;;
12950;SDS011;6540;50.858;7.232;2022-07-06T04:47:23;3.33;;;2.63;;
12950;SDS011;6540;50.858;7.232;2022-07-06T04:49:48;3.43;;;2.50;;
12950;SDS011;6540;50.858;7.232;2022-07-06T04:52:14;3.93;;;2.90;;
12950;SDS011;6540;50.858;7.232;2022-07-06T04:54:39;2.40;;;2.20;;
12950;SDS011;6540;50.858;7.232;2022-07-06T04:57:05;2.50;;;2.23;;
12950;SDS011;6540;50.858;7.232;2022-07-06T04:59:30;4.53;;;2.80;;
12950;SDS011;6540;50.858;7.232;2022-07-06T05:01:55;4.23;;;2.77;;
12950;SDS011;6540;50.858;7.232;2022-07-06T05:04:21;2.53;;;2.33;;
12950;SDS011;6540;50.858;7.232;2022-07-06T05:06:47;4.53;;;2.47;;
12950;SDS011;6540;50.858;7.232;2022-07-06T05:09:12;3.60;;;2.23;;
12950;SDS011;6540;50.858;7.232;2022-07-06T05:11:38;3.03;;;2.47;;
12950;SDS011;6540;50.858;7.232;2022-07-06T05:14:04;3.00;;;2.40;;
12950;SDS011;6540;50.858;7.232;2022-07-06T05:16:30;2.93;;;2.63;;
12950;SDS011;6540;50.858;7.232;2022-07-06T05:18:56;4.37;;;2.30;;
12950;SDS011;6540;50.858;7.232;2022-07-06T05:21:21;3.67;;;2.60;;
12950;SDS011;6540;50.858;7.232;2022-07-06T05:23:46;5.50;;;2.53;;
12950;SDS011;6540;50.858;7.232;2022-07-06T05:26:12;4.83;;;2.80;;
12950;SDS011;6540;50.858;7.232;2022-07-06T05:28:37;2.60;;;2.40;;
12950;SDS011;6540;50.858;7.232;2022-07-06T05:31:03;3.20;;;2.90;;
12950;SDS011;6540;50.858;7.232;2022-07-06T05:33:28;5.83;;;2.97;;
12950;SDS011;6540;50.858;7.232;2022-07-06T05:35:53;4.77;;;2.80;;
12950;SDS011;6540;50.858;7.232;2022-07-06T05:38:19;4.00;;;2.90;;
12950;SDS011;6540;50.858;7.232;2022-07-06T05:40:44;4.80;;;3.20;;
12950;SDS011;6540;50.858;7.232;2022-07-06T05:43:10;3.90;;;3.37;;
12950;SDS011;6540;50.858;7.232;2022-07-06T05:45:35;3.10;;;2.80;;
12950;SDS011;6540;50.858;7.232;2022-07-06T05:48:01;3.47;;;3.07;;
12950;SDS011;6540;50.858;7.232;2022-07-06T05:50:45;6.20;;;2.93;;
12950;SDS011;6540;50.858;7.232;2022-07-06T05:53:10;4.37;;;2.87;;
12950;SDS011;6540;50.858;7.232;2022-07-06T05:55:36;3.23;;;2.80;;
12950;SDS011;6540;50.858;7.232;2022-07-06T05:58:01;3.33;;;2.80;;
12950;SDS011;6540;50.858;7.232;2022-07-06T06:00:26;6.07;;;3.33;;
12950;SDS011;6540;50.858;7.232;2022-07-06T06:02:53;4.57;;;2.90;;
12950;SDS011;6540;50.858;7.232;2022-07-06T06:05:19;3.10;;;2.80;;
12950;SDS011;6540;50.858;7.232;2022-07-06T06:07:45;3.30;;;2.70;;
12950;SDS011;6540;50.858;7.232;2022-07-06T06:10:12;5.20;;;2.77;;
12950;SDS011;6540;50.858;7.232;2022-07-06T06:12:38;4.23;;;3.27;;
12950;SDS011;6540;50.858;7.232;2022-07-06T06:15:05;3.97;;;2.97;;
12950;SDS011;6540;50.858;7.232;2022-07-06T06:17:31;5.30;;;2.83;;
12950;SDS011;6540;50.858;7.232;2022-07-06T06:19:57;5.23;;;3.17;;
12950;SDS011;6540;50.858;7.232;2022-07-06T06:22:23;6.93;;;3.10;;
12950;SDS011;6540;50.858;7.232;2022-07-06T06:24:48;7.77;;;2.83;;
12950;SDS011;6540;50.858;7.232;2022-07-06T06:27:14;6.10;;;3.10;;
12950;SDS011;6540;50.858;7.232;2022-07-06T06:29:40;3.97;;;2.70;;
12950;SDS011;6540;50.858;7.232;2022-07-06T06:32:06;4.23;;;2.47;;
12950;SDS011;6540;50.858;7.232;2022-07-06T06:34:32;4.97;;;2.50;;
12950;SDS011;6540;50.858;7.232;2022-07-06T06:36:58;6.77;;;2.87;;
12950;SDS011;6540;50.858;7.232;2022-07-06T06:39:23;3.50;;;2.23;;
12950;SDS011;6540;50.858;7.232;2022-07-06T06:41:48;2.90;;;2.23;;
12950;SDS011;6540;50.858;7.232;2022-07-06T06:44:14;4.53;;;2.63;;
12950;SDS011;6540;50.858;7.232;2022-07-06T06:46:39;3.40;;;2.10;;
12950;SDS011;6540;50.858;7.232;2022-07-06T06:49:05;4.83;;;2.50;;
12950;SDS011;6540;50.858;7.232;2022-07-06T06:51:31;2.67;;;1.93;;
12950;SDS011;6540;50.858;7.232;2022-07-06T06:53:57;3.73;;;2.30;;
12950;SDS011;6540;50.858;7.232;2022-07-06T06:56:22;6.27;;;2.10;;
12950;SDS011;6540;50.858;7.232;2022-07-06T06:58:48;5.07;;;2.00;;
12950;SDS011;6540;50.858;7.232;2022-07-06T07:01:13;3.77;;;2.20;;
12950;SDS011;6540;50.858;7.232;2022-07-06T07:03:38;2.53;;;1.90;;
12950;SDS011;6540;50.858;7.232;2022-07-06T07:06:04;3.83;;;1.70;;
12950;SDS011;6540;50.858;7.232;2022-07-06T07:08:29;3.80;;;2.13;;
12950;SDS011;6540;50.858;7.232;2022-07-06T07:10:54;3.67;;;1.43;;
12950;SDS011;6540;50.858;7.232;2022-07-06T07:13:20;2.17;;;1.17;;
12950;SDS011;6540;50.858;7.232;2022-07-06T07:15:45;3.47;;;1.80;;
12950;SDS011;6540;50.858;7.232;2022-07-06T07:18:11;2.57;;;1.63;;
12950;SDS011;6540;50.858;7.232;2022-07-06T07:20:36;5.43;;;1.23;;
12950;SDS011;6540;50.858;7.232;2022-07-06T07:23:02;2.73;;;1.60;;
12950;SDS011;6540;50.858;7.232;2022-07-06T07:25:27;3.07;;;1.53;;
12950;SDS011;6540;50.858;7.232;2022-07-06T07:27:53;4.10;;;1.20;;
12950;SDS011;6540;50.858;7.232;2022-07-06T07:30:19;3.10;;;1.20;;
12950;SDS011;6540;50.858;7.232;2022-07-06T07:32:45;2.07;;;1.50;;
12950;SDS011;6540;50.858;7.232;2022-07-06T07:35:10;5.23;;;1.70;;
12950;SDS011;6540;50.858;7.232;2022-07-06T07:37:35;3.83;;;1.67;;
12950;SDS011;6540;50.858;7.232;2022-07-06T07:40:01;3.07;;;2.20;;
12950;SDS011;6540;50.858;7.232;2022-07-06T07:42:27;2.87;;;1.70;;
12950;SDS011;6540;50.858;7.232;2022-07-06T07:44:53;2.63;;;1.60;;
12950;SDS011;6540;50.858;7.232;2022-07-06T07:47:18;2.07;;;1.87;;
12950;SDS011;6540;50.858;7.232;2022-07-06T07:49:44;3.70;;;1.70;;
12950;SDS011;6540;50.858;7.232;2022-07-06T07:52:09;2.30;;;1.70;;
12950;SDS011;6540;50.858;7.232;2022-07-06T07:54:35;5.50;;;2.00;;
12950;SDS011;6540;50.858;7.232;2022-07-06T07:57:00;5.53;;;1.73;;
12950;SDS011;6540;50.858;7.232;2022-07-06T07:59:25;3.23;;;1.57;;
12950;SDS011;6540;50.858;7.232;2022-07-06T08:01:51;3.17;;;1.70;;
12950;SDS011;6540;50.858;7.232;2022-07-06T08:04:17;2.60;;;1.37;;
12950;SDS011;6540;50.858;7.232;2022-07-06T08:06:43;1.90;;;0.87;;
12950;SDS011;6540;50.858;7.232;2022-07-06T08:09:08;2.33;;;1.53;;
12950;SDS011;6540;50.858;7.232;2022-07-06T08:11:34;3.00;;;1.53;;
12950;SDS011;6540;50.858;7.232;2022-07-06T08:14:00;3.13;;;1.20;;
12950;SDS011;6540;50.858;7.232;2022-07-06T08:16:26;3.13;;;1.20;;
12950;SDS011;6540;50.858;7.232;2022-07-06T08:18:53;3.63;;;1.10;;
12950;SDS011;6540;50.858;7.232;2022-07-06T08:21:18;3.77;;;1.67;;
12950;SDS011;6540;50.858;7.232;2022-07-06T08:23:43;4.30;;;1.47;;
12950;SDS011;6540;50.858;7.232;2022-07-06T08:26:09;1.67;;;1.00;;
12950;SDS011;6540;50.858;7.232;2022-07-06T08:28:34;1.40;;;1.10;;
12950;SDS011;6540;50.858;7.232;2022-07-06T08:31:00;3.17;;;1.03;;
12950;SDS011;6540;50.858;7.232;2022-07-06T08:33:25;1.03;;;0.87;;
12950;SDS011;6540;50.858;7.232;2022-07-06T08:35:51;2.60;;;1.20;;
12950;SDS011;6540;50.858;7.232;2022-07-06T08:38:16;1.47;;;1.00;;
12950;SDS011;6540;50.858;7.232;2022-07-06T08:40:42;1.90;;;1.17;;
12950;SDS011;6540;50.858;7.232;2022-07-06T08:43:10;1.70;;;1.30;;
12950;SDS011;6540;50.858;7.232;2022-07-06T08:45:39;1.53;;;1.40;;
12950;SDS011;6540;50.858;7.232;2022-07-06T08:48:10;1.27;;;1.07;;
12950;SDS011;6540;50.858;7.232;2022-07-06T08:50:36;1.30;;;1.20;;
12950;SDS011;6540;50.858;7.232;2022-07-06T08:53:03;1.20;;;1.10;;
12950;SDS011;6540;50.858;7.232;2022-07-06T08:55:29;2.47;;;1.43;;
12950;SDS011;6540;50.858;7.232;2022-07-06T08:57:55;1.40;;;0.67;;
12950;SDS011;6540;50.858;7.232;2022-07-06T09:00:21;3.80;;;1.20;;
12950;SDS011;6540;50.858;7.232;2022-07-06T09:02:50;3.60;;;1.20;;
12950;SDS011;6540;50.858;7.232;2022-07-06T09:05:18;3.47;;;1.20;;
12950;SDS011;6540;50.858;7.232;2022-07-06T09:07:48;0.90;;;0.87;;
12950;SDS011;6540;50.858;7.232;2022-07-06T09:10:15;2.73;;;1.00;;
12950;SDS011;6540;50.858;7.232;2022-07-06T09:12:42;2.57;;;1.00;;
12950;SDS011;6540;50.858;7.232;2022-07-06T09:15:07;1.37;;;1.10;;
12950;SDS011;6540;50.858;7.232;2022-07-06T09:17:37;2.00;;;1.40;;
12950;SDS011;6540;50.858;7.232;2022-07-06T09:20:06;5.27;;;1.20;;
12950;SDS011;6540;50.858;7.232;2022-07-06T09:22:35;1.57;;;1.27;;
12950;SDS011;6540;50.858;7.232;2022-07-06T09:27:38;3.37;;;1.20;;
12950;SDS011;6540;50.858;7.232;2022-07-06T09:30:06;3.30;;;1.17;;
12950;SDS011;6540;50.858;7.232;2022-07-06T09:32:38;1.93;;;1.30;;
12950;SDS011;6540;50.858;7.232;2022-07-06T09:35:08;2.93;;;1.60;;
12950;SDS011;6540;50.858;7.232;2022-07-06T09:37:43;2.43;;;1.23;;
12950;SDS011;6540;50.858;7.232;2022-07-06T09:40:16;2.10;;;1.00;;
12950;SDS011;6540;50.858;7.232;2022-07-06T09:42:44;1.30;;;1.20;;
12950;SDS011;6540;50.858;7.232;2022-07-06T09:45:10;1.80;;;1.30;;
12950;SDS011;6540;50.858;7.232;2022-07-06T09:47:36;3.40;;;1.37;;
12950;SDS011;6540;50.858;7.232;2022-07-06T09:50:04;1.30;;;0.80;;
12950;SDS011;6540;50.858;7.232;2022-07-06T09:52:33;2.53;;;1.57;;
12950;SDS011;6540;50.858;7.232;2022-07-06T09:54:59;2.70;;;1.00;;
12950;SDS011;6540;50.858;7.232;2022-07-06T09:57:24;1.00;;;1.00;;
12950;SDS011;6540;50.858;7.232;2022-07-06T09:59:50;1.37;;;1.10;;
12950;SDS011;6540;50.858;7.232;2022-07-06T10:02:16;1.33;;;1.23;;
12950;SDS011;6540;50.858;7.232;2022-07-06T10:04:42;1.30;;;0.93;;
12950;SDS011;6540;50.858;7.232;2022-07-06T10:07:09;1.40;;;0.80;;
12950;SDS011;6540;50.858;7.232;2022-07-06T10:09:35;0.93;;;0.90;;
12950;SDS011;6540;50.858;7.232;2022-07-06T10:12:03;2.57;;;1.60;;
12950;SDS011;6540;50.858;7.232;2022-07-06T10:14:31;3.53;;;1.23;;
12950;SDS011;6540;50.858;7.232;2022-07-06T10:16:58;1.77;;;1.10;;
12950;SDS011;6540;50.858;7.232;2022-07-06T10:19:25;1.10;;;1.00;;
12950;SDS011;6540;50.858;7.232;2022-07-06T10:21:52;1.97;;;1.20;;
12950;SDS011;6540;50.858;7.232;2022-07-06T10:24:19;1.13;;;1.03;;
12950;SDS011;6540;50.858;7.232;2022-07-06T10:26:46;2.03;;;1.13;;
12950;SDS011;6540;50.858;7.232;2022-07-06T10:29:12;1.03;;;0.90;;
12950;SDS011;6540;50.858;7.232;2022-07-06T10:31:39;1.40;;;1.30;;
12950;SDS011;6540;50.858;7.232;2022-07-06T10:34:09;1.20;;;0.90;;
12950;SDS011;6540;50.858;7.232;2022-07-06T10:36:36;1.17;;;1.07;;
12950;SDS011;6540;50.858;7.232;2022-07-06T10:39:03;1.17;;;0.97;;
12950;SDS011;6540;50.858;7.232;2022-07-06T10:41:49;1.00;;;0.90;;
12950;SDS011;6540;50.858;7.232;2022-07-06T10:44:18;2.70;;;1.37;;
12950;SDS011;6540;50.858;7.232;2022-07-06T10:46:52;1.50;;;1.03;;
12950;SDS011;6540;50.858;7.232;2022-07-06T10:49:22;2.80;;;1.17;;
12950;SDS011;6540;50.858;7.232;2022-07-06T10:51:48;2.07;;;1.10;;
12950;SDS011;6540;50.858;7.232;2022-07-06T10:54:14;1.77;;;1.20;;
12950;SDS011;6540;50.858;7.232;2022-07-06T11:01:40;0.80;;;0.80;;
12950;SDS011;6540;50.858;7.232;2022-07-06T11:04:08;1.30;;;1.17;;
12950;SDS011;6540;50.858;7.232;2022-07-06T11:06:38;2.23;;;1.00;;
12950;SDS011;6540;50.858;7.232;2022-07-06T11:09:08;1.50;;;1.40;;
12950;SDS011;6540;50.858;7.232;2022-07-06T11:14:10;1.70;;;1.00;;
12950;SDS011;6540;50.858;7.232;2022-07-06T11:19:21;1.20;;;1.10;;
12950;SDS011;6540;50.858;7.232;2022-07-06T11:21:57;1.13;;;0.90;;
12950;SDS011;6540;50.858;7.232;2022-07-06T11:24:34;3.93;;;1.17;;
12950;SDS011;6540;50.858;7.232;2022-07-06T11:27:04;2.57;;;1.10;;
12950;SDS011;6540;50.858;7.232;2022-07-06T11:29:32;0.77;;;0.77;;
12950;SDS011;6540;50.858;7.232;2022-07-06T11:32:00;1.33;;;0.90;;
12950;SDS011;6540;50.858;7.232;2022-07-06T11:34:35;0.93;;;0.93;;
12950;SDS011;6540;50.858;7.232;2022-07-06T11:37:04;2.40;;;1.10;;
12950;SDS011;6540;50.858;7.232;2022-07-06T11:39:32;1.33;;;1.23;;
12950;SDS011;6540;50.858;7.232;2022-07-06T11:41:59;1.13;;;1.03;;
12950;SDS011;6540;50.858;7.232;2022-07-06T11:44:29;2.00;;;0.97;;
12950;SDS011;6540;50.858;7.232;2022-07-06T11:46:54;2.00;;;0.90;;
12950;SDS011;6540;50.858;7.232;2022-07-06T11:49:22;1.10;;;1.03;;
12950;SDS011;6540;50.858;7.232;2022-07-06T11:51:47;1.63;;;1.40;;
12950;SDS011;6540;50.858;7.232;2022-07-06T11:59:11;1.53;;;0.97;;
12950;SDS011;6540;50.858;7.232;2022-07-06T12:01:36;2.67;;;1.30;;
12950;SDS011;6540;50.858;7.232;2022-07-06T12:04:06;1.60;;;1.07;;
12950;SDS011;6540;50.858;7.232;2022-07-06T12:06:32;2.20;;;1.00;;
12950;SDS011;6540;50.858;7.232;2022-07-06T12:08:59;1.43;;;1.10;;
12950;SDS011;6540;50.858;7.232;2022-07-06T12:11:29;2.97;;;1.40;;
12950;SDS011;6540;50.858;7.232;2022-07-06T12:13:58;1.50;;;1.13;;
12950;SDS011;6540;50.858;7.232;2022-07-06T12:16:29;1.90;;;1.50;;
12950;SDS011;6540;50.858;7.232;2022-07-06T12:18:58;1.37;;;1.27;;
12950;SDS011;6540;50.858;7.232;2022-07-06T12:21:23;1.23;;;1.13;;
12950;SDS011;6540;50.858;7.232;2022-07-06T12:23:51;1.70;;;1.23;;
12950;SDS011;6540;50.858;7.232;2022-07-06T12:26:18;2.03;;;1.17;;
12950;SDS011;6540;50.858;7.232;2022-07-06T12:28:46;1.70;;;1.27;;
12950;SDS011;6540;50.858;7.232;2022-07-06T12:31:33;1.50;;;1.37;;
12950;SDS011;6540;50.858;7.232;2022-07-06T12:34:00;3.07;;;1.40;;
12950;SDS011;6540;50.858;7.232;2022-07-06T12:36:26;2.07;;;1.20;;
12950;SDS011;6540;50.858;7.232;2022-07-06T12:38:52;1.50;;;1.40;;
12950;SDS011;6540;50.858;7.232;2022-07-06T12:41:27;1.47;;;1.37;;
12950;SDS011;6540;50.858;7.232;2022-07-06T12:44:05;3.53;;;1.50;;
12950;SDS011;6540;50.858;7.232;2022-07-06T12:49:00;1.50;;;1.40;;
12950;SDS011;6540;50.858;7.232;2022-07-06T12:51:27;1.60;;;1.50;;
12950;SDS011;6540;50.858;7.232;2022-07-06T12:53:53;2.40;;;1.70;;
12950;SDS011;6540;50.858;7.232;2022-07-06T12:56:36;1.50;;;1.40;;
12950;SDS011;6540;50.858;7.232;2022-07-06T12:59:01;2.17;;;1.43;;
12950;SDS011;6540;50.858;7.232;2022-07-06T13:01:27;2.57;;;1.50;;
12950;SDS011;6540;50.858;7.232;2022-07-06T13:03:56;1.77;;;1.43;;
12950;SDS011;6540;50.858;7.232;2022-07-06T13:06:32;2.00;;;1.70;;
12950;SDS011;6540;50.858;7.232;2022-07-06T13:08:59;2.43;;;1.80;;
12950;SDS011;6540;50.858;7.232;2022-07-06T13:11:25;1.50;;;1.10;;
12950;SDS011;6540;50.858;7.232;2022-07-06T13:13:50;2.90;;;1.77;;
12950;SDS011;6540;50.858;7.232;2022-07-06T13:16:16;1.40;;;1.30;;
12950;SDS011;6540;50.858;7.232;2022-07-06T13:18:41;2.33;;;1.10;;
12950;SDS011;6540;50.858;7.232;2022-07-06T13:21:07;3.20;;;1.17;;
12950;SDS011;6540;50.858;7.232;2022-07-06T13:23:32;1.53;;;1.43;;
12950;SDS011;6540;50.858;7.232;2022-07-06T13:25:58;3.37;;;1.50;;
12950;SDS011;6540;50.858;7.232;2022-07-06T13:28:25;2.13;;;1.30;;
12950;SDS011;6540;50.858;7.232;2022-07-06T13:30:50;2.17;;;1.13;;
12950;SDS011;6540;50.858;7.232;2022-07-06T13:33:15;1.40;;;1.30;;
12950;SDS011;6540;50.858;7.232;2022-07-06T13:35:41;1.87;;;1.13;;
12950;SDS011;6540;50.858;7.232;2022-07-06T13:38:06;2.57;;;1.30;;
12950;SDS011;6540;50.858;7.232;2022-07-06T13:40:33;3.77;;;1.30;;
12950;SDS011;6540;50.858;7.232;2022-07-06T13:43:00;2.60;;;1.20;;
12950;SDS011;6540;50.858;7.232;2022-07-06T13:45:26;3.50;;;1.50;;
12950;SDS011;6540;50.858;7.232;2022-07-06T13:47:51;1.87;;;1.40;;
12950;SDS011;6540;50.858;7.232;2022-07-06T13:50:17;3.13;;;1.10;;
12950;SDS011;6540;50.858;7.232;2022-07-06T13:52:42;1.00;;;1.00;;
12950;SDS011;6540;50.858;7.232;2022-07-06T13:55:08;1.30;;;1.20;;
12950;SDS011;6540;50.858;7.232;2022-07-06T13:57:34;1.37;;;1.27;;
12950;SDS011;6540;50.858;7.232;2022-07-06T13:59:59;2.87;;;1.40;;
12950;SDS011;6540;50.858;7.232;2022-07-06T14:02:25;1.50;;;1.00;;
12950;SDS011;6540;50.858;7.232;2022-07-06T14:04:50;2.17;;;1.20;;
12950;SDS011;6540;50.858;7.232;2022-07-06T14:07:15;2.60;;;1.10;;
12950;SDS011;6540;50.858;7.232;2022-07-06T14:09:41;1.20;;;1.10;;
12950;SDS011;6540;50.858;7.232;2022-07-06T14:12:08;2.50;;;0.97;;
12950;SDS011;6540;50.858;7.232;2022-07-06T14:14:33;1.00;;;1.00;;
12950;SDS011;6540;50.858;7.232;2022-07-06T14:16:59;2.20;;;1.30;;
12950;SDS011;6540;50.858;7.232;2022-07-06T14:19:24;2.50;;;0.93;;
12950;SDS011;6540;50.858;7.232;2022-07-06T14:21:51;6.87;;;1.33;;
12950;SDS011;6540;50.858;7.232;2022-07-06T14:24:16;6.83;;;1.70;;
12950;SDS011;6540;50.858;7.232;2022-07-06T14:26:42;2.33;;;1.70;;
12950;SDS011;6540;50.858;7.232;2022-07-06T14:29:08;2.10;;;1.57;;
12950;SDS011;6540;50.858;7.232;2022-07-06T14:31:33;2.00;;;1.30;;
12950;SDS011;6540;50.858;7.232;2022-07-06T14:33:59;2.73;;;1.53;;
12950;SDS011;6540;50.858;7.232;2022-07-06T14:36:24;1.33;;;1.23;;
12950;SDS011;6540;50.858;7.232;2022-07-06T14:38:49;4.07;;;1.30;;
12950;SDS011;6540;50.858;7.232;2022-07-06T14:41:15;1.43;;;1.27;;
12950;SDS011;6540;50.858;7.232;2022-07-06T14:43:40;0.97;;;0.90;;
12950;SDS011;6540;50.858;7.232;2022-07-06T14:46:06;3.07;;;1.43;;
12950;SDS011;6540;50.858;7.232;2022-07-06T14:48:32;4.60;;;1.60;;
12950;SDS011;6540;50.858;7.232;2022-07-06T14:50:58;1.30;;;1.20;;
12950;SDS011;6540;50.858;7.232;2022-07-06T14:53:24;1.60;;;1.23;;
12950;SDS011;6540;50.858;7.232;2022-07-06T14:55:49;1.20;;;1.10;;
12950;SDS011;6540;50.858;7.232;2022-07-06T14:58:15;0.93;;;0.90;;
12950;SDS011;6540;50.858;7.232;2022-07-06T15:00:46;1.60;;;1.30;;
12950;SDS011;6540;50.858;7.232;2022-07-06T15:03:12;1.30;;;1.20;;
12950;SDS011;6540;50.858;7.232;2022-07-06T15:05:37;1.10;;;1.00;;
12950;SDS011;6540;50.858;7.232;2022-07-06T15:08:03;1.80;;;1.10;;
12950;SDS011;6540;50.858;7.232;2022-07-06T15:10:30;2.37;;;1.00;;
12950;SDS011;6540;50.858;7.232;2022-07-06T15:12:56;2.27;;;1.33;;
12950;SDS011;6540;50.858;7.232;2022-07-06T15:15:21;2.17;;;1.40;;
12950;SDS011;6540;50.858;7.232;2022-07-06T15:17:46;3.80;;;1.17;;
12950;SDS011;6540;50.858;7.232;2022-07-06T15:20:12;1.43;;;1.00;;
12950;SDS011;6540;50.858;7.232;2022-07-06T15:22:37;1.43;;;1.07;;
12950;SDS011;6540;50.858;7.232;2022-07-06T15:25:03;0.63;;;0.63;;
12950;SDS011;6540;50.858;7.232;2022-07-06T15:27:28;2.43;;;1.27;;
12950;SDS011;6540;50.858;7.232;2022-07-06T15:29:54;1.63;;;0.80;;
12950;SDS011;6540;50.858;7.232;2022-07-06T15:32:20;1.40;;;0.90;;